Home > Products > Valid Products > TAF

000
FTUS43 KTOP 301120
TAFTOP
TAF
KTOP 301120Z 3012/3112 14003KT P6SM FEW250
      TEMPO 3012/3013 1SM BCFG
     FM301700 17009KT P6SM SCT060
     FM310100 15005KT P6SM SCT250=



000
FTUS43 KTOP 300859 AAA
TAFTOP
TAF AMD
KTOP 300859Z 3009/3106 19003KT P6SM BKN250
      TEMPO 3009/3013 1SM BCFG
     FM301700 17009KT P6SM SCT060=



000
FTUS43 KTOP 290520
TAFTOP
TAF
KTOP 290520Z 2906/3006 22002KT P6SM SKC
     FM290900 20002KT 6SM MIFG BR SKC
     FM291300 20007KT P6SM SCT250
     FM292000 16007KT P6SM SCT150=



000
FTUS43 KTOP 280520
TAFTOP
TAF
KTOP 280520Z 2806/2906 14005KT P6SM BKN100
     FM280700 13005KT P6SM VCSH BKN040
     FM280900 15007KT P6SM BKN150
     FM281500 22010KT P6SM SCT035=



000
FTUS43 KTOP 280107 AAA
TAFTOP
TAF AMD
KTOP 280107Z 2801/2824 25014KT P6SM VCTS SCT020CB OVC100
     FM280400 14005KT P6SM SCT030 BKN100
     FM281500 22010KT P6SM SCT035=



    US Dept of Commerce
    National Oceanic and Atmospheric Administration
    National Weather Service
    1325 East West Highway
    Silver Spring, MD 20910
    Page Author: NWS Internet Services Team
Disclaimer
Information Quality
Credits
Glossary
Privacy Policy
Freedom of Information Act (FOIA)
About Us
Career Opportunities